Bookmark and Share
Track history (hours):
 

Del Norte

More information available from US FCC via Universal Licensing System and Coast Guard Vessel Documentation Center.

Last reported at 2014-Apr-18 15:33 UTC. Time now 2014-Apr-18 16:23 UTC.
Position N 37°56' W 122°29'.

Length 48 m.

Type: High speed craft. MMSI: 366990520.

NotesDate/timePositionNaut miles runAvg speedWind from/ knotsBaromVisibWave heightAir tempDewpointWater temp
2014-Apr-18 15:33N 37°56' W 122°29'2 1.6
2014-Apr-18 14:33N 37°57' W 122°30'8 0.6
2014-Apr-18 02:34N 37°51' W 122°24'4 3.7
2014-Apr-18 01:33N 37°51' W 122°29'4 3.8
2014-Apr-18 00:33N 37°51' W 122°24'5 5.4
2014-Apr-17 23:33N 37°55' W 122°28'4 4.1
2014-Apr-17 22:33N 37°51' W 122°29'5 5.5
2014-Apr-17 21:33N 37°57' W 122°31'0 0.0
2014-Apr-17 20:33N 37°57' W 122°31'0 0.0
2014-Apr-17 19:33N 37°57' W 122°31'0 0.0
2014-Apr-17 18:32N 37°57' W 122°31'0 0.0
2014-Apr-17 16:12N 37°57' W 122°31'3 3.9
2014-Apr-17 15:33N 37°55' W 122°28'2 2.4
2014-Apr-17 14:33N 37°57' W 122°30'0 0.2
2014-Apr-17 13:33N 37°57' W 122°31'7 0.5
2014-Apr-17 00:33N 37°52' W 122°24'2 2.3
2014-Apr-16 23:34N 37°51' W 122°27'6 6.4
2014-Apr-16 22:34N 37°57' W 122°30'0 0.1
2014-Apr-16 21:34N 37°57' W 122°31'0 0.0
2014-Apr-16 20:33N 37°57' W 122°31'9 8.6
2014-Apr-16 19:34N 37°50' W 122°24'9 8.5
2014-Apr-16 18:33N 37°57' W 122°31'6 6.1
2014-Apr-16 17:34N 37°52' W 122°25'6 6.0
2014-Apr-16 16:34N 37°57' W 122°31'2 2.4
2014-Apr-16 15:33N 37°56' W 122°28'2 2.3
2014-Apr-16 14:32N 37°57' W 122°30'7 0.5
2014-Apr-16 00:33N 37°52' W 122°24'4 4.2
2014-Apr-15 23:34N 37°48' W 122°24'5 5.0
2014-Apr-15 22:33N 37°52' W 122°27'4 0.6
2014-Apr-15 15:33N 37°56' W 122°29'1 1.1
2014-Apr-15 14:33N 37°57' W 122°30'6 0.4
2014-Apr-14 23:34N 37°52' W 122°25'4 4.3
2014-Apr-14 22:34N 37°48' W 122°23'9 9.3
2014-Apr-14 21:34N 37°56' W 122°29'1 0.2
2014-Apr-14 14:34N 37°56' W 122°28'2 2.4
2014-Apr-14 13:33N 37°57' W 122°30'10 0.7
2014-Apr-13 22:33N 37°48' W 122°24'0 0.0
2014-Apr-13 21:33N 37°48' W 122°24'1110.5
2014-Apr-13 20:33N 37°57' W 122°31'7 0.1
2014-Apr-12 00:33N 37°52' W 122°25'4 4.1
2014-Apr-11 23:33N 37°48' W 122°23'5 5.1
2014-Apr-11 22:31N 37°53' W 122°26'5 5.4
2014-Apr-11 21:33N 37°57' W 122°31'9 9.2
2014-Apr-11 20:33N 37°50' W 122°23'9 9.1
2014-Apr-11 19:34N 37°57' W 122°31'7 6.7
2014-Apr-11 18:33N 37°52' W 122°25'7 3.0
2014-Apr-11 16:19N 37°57' W 122°31'6 7.7
2014-Apr-11 15:33N 37°53' W 122°25'6 4.1
2014-Apr-11 14:05N 37°57' W 122°30'0 0.1
2014-Apr-11 13:24N 37°57' W 122°31'0 0.0
2014-Apr-11 01:10N 37°57' W 122°31'710.9
2014-Apr-11 00:34N 37°52' W 122°25'6 5.7
2014-Apr-10 23:33N 37°56' W 122°30'1 0.9
2014-Apr-10 22:33N 37°57' W 122°31'0 0.0
2014-Apr-10 16:20N 37°57' W 122°31'3 4.0
2014-Apr-10 15:33N 37°55' W 122°27'3 3.1
2014-Apr-10 14:33N 37°57' W 122°30'0 0.0
2014-Apr-10 06:33N 37°57' W 122°31'7 1.2
2014-Apr-10 00:33N 37°51' W 122°24'3 2.8
2014-Apr-09 23:33N 37°53' W 122°27'5 4.6
2014-Apr-09 22:33N 37°57' W 122°31'0 0.0
2014-Apr-09 21:34N 37°57' W 122°31'0 0.0
2014-Apr-09 20:33N 37°57' W 122°31'0 0.0
2014-Apr-09 19:32N 37°57' W 122°31'0 0.0
2014-Apr-09 18:33N 37°57' W 122°31'0 0.0
2014-Apr-09 17:33N 37°57' W 122°31'0 0.0
2014-Apr-09 16:33N 37°57' W 122°31'1 0.7
2014-Apr-09 15:32N 37°56' W 122°30'1 0.6
2014-Apr-09 14:32N 37°57' W 122°30'6 0.5
2014-Apr-09 00:33N 37°52' W 122°25'4 4.4
2014-Apr-08 23:33N 37°48' W 122°24'5 5.1
2014-Apr-08 22:33N 37°51' W 122°28'6 5.8
2014-Apr-08 21:33N 37°57' W 122°30'0 0.0
2014-Apr-08 20:33N 37°57' W 122°30'0 0.0
2014-Apr-08 19:33N 37°57' W 122°30'0 0.1
2014-Apr-08 18:33N 37°57' W 122°30'1010.4
2014-Apr-08 17:33N 37°48' W 122°24'5 5.4
2014-Apr-08 16:33N 37°51' W 122°29'1 0.7
2014-Apr-08 15:33N 37°51' W 122°28'  

Dump ship's entire track history

sailing weather and tide predictions

Del Norte — WDC2280 — position and weather